createdAt,value
2023-01-29T00:00:34.636Z,50.22
2023-01-29T00:03:21.757Z,50.45
2023-01-29T00:05:48.957Z,50.16
2023-01-29T00:08:16.071Z,49.94
2023-01-29T00:10:42.945Z,50.61
2023-01-29T00:13:10.108Z,50.77
2023-01-29T00:15:36.871Z,50.17
2023-01-29T00:18:03.927Z,50.25
2023-01-29T00:20:31.247Z,50.02
2023-01-29T00:22:58.291Z,50.17
2023-01-29T00:25:25.285Z,50.18
2023-01-29T00:27:52.643Z,50.09
2023-01-29T00:30:20.386Z,49.88
2023-01-29T00:32:47.703Z,50.03
2023-01-29T00:35:14.426Z,50.18
2023-01-29T00:37:41.567Z,49.99
2023-01-29T00:40:09.460Z,50.02
2023-01-29T00:42:55.014Z,50.10
2023-01-29T00:45:21.798Z,50.06
2023-01-29T00:47:48.901Z,49.98
2023-01-29T00:50:15.969Z,49.95
2023-01-29T00:52:43.260Z,50.17
2023-01-29T00:55:10.627Z,50.05
2023-01-29T00:57:38.021Z,50.50
2023-01-29T01:00:06.372Z,49.87
2023-01-29T01:02:55.177Z,50.05
2023-01-29T01:05:22.313Z,50.00
2023-01-29T01:07:51.588Z,50.48
2023-01-29T01:10:27.066Z,50.16
2023-01-29T01:12:54.264Z,50.15
2023-01-29T01:15:21.489Z,50.40
2023-01-29T01:17:48.961Z,50.10
2023-01-29T01:20:16.178Z,50.36
2023-01-29T01:22:43.446Z,50.24
2023-01-29T01:25:10.409Z,50.13
2023-01-29T01:27:41.098Z,49.72
2023-01-29T01:30:10.641Z,49.89
2023-01-29T01:32:38.031Z,49.69
2023-01-29T01:35:05.276Z,50.07
2023-01-29T01:37:32.320Z,50.06
2023-01-29T01:39:59.096Z,50.11
2023-01-29T01:42:30.540Z,50.13
2023-01-29T01:45:06.591Z,50.52
2023-01-29T01:47:40.928Z,50.56
2023-01-29T01:50:11.782Z,50.37
2023-01-29T01:52:40.659Z,50.49
2023-01-29T01:55:07.849Z,50.31
2023-01-29T01:57:34.945Z,50.69
2023-01-29T02:00:11.510Z,50.48
2023-01-29T02:02:57.610Z,50.65
2023-01-29T02:05:43.123Z,50.55
2023-01-29T02:08:28.792Z,50.88
2023-01-29T02:10:55.719Z,50.82
2023-01-29T02:13:22.863Z,50.91
2023-01-29T02:15:49.702Z,50.75
2023-01-29T02:18:18.104Z,50.97
2023-01-29T02:21:24.984Z,51.09
2023-01-29T02:24:00.489Z,50.84
2023-01-29T02:26:41.101Z,50.88
2023-01-29T02:29:22.807Z,50.99
2023-01-29T02:32:00.702Z,51.29
2023-01-29T02:35:12.848Z,51.18
2023-01-29T02:38:02.115Z,50.88
2023-01-29T02:40:55.531Z,50.87
2023-01-29T02:43:54.062Z,51.18
2023-01-29T02:46:41.008Z,50.99
2023-01-29T02:49:13.305Z,51.41
2023-01-29T02:51:45.038Z,51.25
2023-01-29T02:54:18.872Z,51.32
2023-01-29T02:56:51.887Z,51.26
2023-01-29T02:59:31.386Z,51.35
2023-01-29T03:02:02.709Z,51.03
2023-01-29T03:04:33.363Z,50.64
2023-01-29T03:07:05.676Z,50.51
2023-01-29T03:09:41.880Z,50.78
2023-01-29T03:12:34.003Z,50.34
2023-01-29T03:15:25.232Z,50.10
2023-01-29T03:18:01.767Z,50.37
2023-01-29T03:20:34.156Z,50.35
2023-01-29T03:23:04.053Z,50.46
2023-01-29T03:25:49.363Z,50.57
2023-01-29T03:28:36.008Z,50.52
2023-01-29T03:31:23.201Z,50.90
2023-01-29T03:34:16.276Z,50.82
2023-01-29T03:36:47.329Z,50.64
2023-01-29T03:39:14.524Z,51.00
2023-01-29T03:41:58.086Z,50.95
2023-01-29T03:44:56.187Z,50.99
2023-01-29T03:47:35.381Z,51.09
2023-01-29T03:50:06.875Z,50.85
2023-01-29T03:52:45.990Z,50.99
2023-01-29T03:55:49.982Z,51.50
2023-01-29T03:58:28.782Z,50.93
2023-01-29T04:01:42.571Z,51.15
2023-01-29T04:04:13.284Z,51.36
2023-01-29T04:06:41.130Z,51.46
2023-01-29T04:09:14.685Z,51.39
2023-01-29T04:11:45.107Z,51.13
2023-01-29T04:14:11.982Z,51.10
2023-01-29T04:16:41.254Z,51.34
2023-01-29T04:19:08.066Z,51.11
2023-01-29T04:21:37.158Z,51.28
2023-01-29T04:24:05.257Z,51.22
2023-01-29T04:26:46.026Z,51.29
2023-01-29T04:29:22.053Z,51.19
2023-01-29T04:32:10.885Z,51.41
2023-01-29T04:35:04.029Z,51.21
2023-01-29T04:37:37.721Z,51.33
2023-01-29T04:40:04.457Z,51.01
2023-01-29T04:42:37.384Z,51.39
2023-01-29T04:45:44.726Z,51.18
2023-01-29T04:48:25.738Z,51.46
2023-01-29T04:51:10.447Z,51.09
2023-01-29T04:53:52.570Z,51.06
2023-01-29T04:56:31.377Z,51.10
2023-01-29T04:59:02.202Z,51.31
2023-01-29T05:01:29.853Z,51.31
2023-01-29T05:03:57.017Z,51.17
2023-01-29T05:06:24.736Z,50.94
2023-01-29T05:08:52.050Z,51.33
2023-01-29T05:11:19.069Z,51.26
2023-01-29T05:13:46.123Z,51.01
2023-01-29T05:16:24.412Z,51.03
2023-01-29T05:18:51.655Z,51.05
2023-01-29T05:21:18.379Z,51.31
2023-01-29T05:23:53.296Z,51.15
2023-01-29T05:26:39.809Z,51.13
2023-01-29T05:29:06.860Z,51.15
2023-01-29T05:31:33.774Z,51.08
2023-01-29T05:34:00.838Z,51.09
2023-01-29T05:36:27.677Z,50.95
2023-01-29T05:38:54.796Z,51.36
2023-01-29T05:41:21.562Z,51.21
2023-01-29T05:43:48.581Z,51.27
2023-01-29T05:46:15.370Z,51.08
2023-01-29T05:48:42.449Z,51.24
2023-01-29T05:51:09.227Z,51.23
2023-01-29T05:53:36.289Z,51.05
2023-01-29T05:56:03.685Z,51.14
2023-01-29T05:58:33.940Z,51.07
2023-01-29T06:01:15.363Z,51.15
2023-01-29T06:03:42.527Z,50.92
2023-01-29T06:06:09.468Z,50.95
2023-01-29T06:08:36.677Z,51.21
2023-01-29T06:11:03.541Z,51.24
2023-01-29T06:13:30.607Z,51.02
2023-01-29T06:15:57.396Z,51.00
2023-01-29T06:18:24.627Z,51.24
2023-01-29T06:20:51.386Z,51.04
2023-01-29T06:23:18.478Z,51.23
2023-01-29T06:25:45.256Z,51.10
2023-01-29T06:28:12.894Z,51.18
2023-01-29T06:30:39.698Z,51.01
2023-01-29T06:33:06.794Z,51.17
2023-01-29T06:35:33.517Z,51.30
2023-01-29T06:38:00.610Z,51.42
2023-01-29T06:40:27.370Z,51.24
2023-01-29T06:42:54.466Z,51.19
2023-01-29T06:45:21.325Z,51.15
2023-01-29T06:47:48.523Z,51.45
2023-01-29T06:50:15.730Z,51.34
2023-01-29T06:52:42.903Z,51.19
2023-01-29T06:55:09.778Z,51.12
2023-01-29T06:57:36.801Z,51.06
2023-01-29T07:00:04.689Z,50.87
2023-01-29T07:02:31.792Z,50.98
2023-01-29T07:04:58.649Z,51.22
2023-01-29T07:07:25.785Z,50.89
2023-01-29T07:09:52.561Z,50.97
2023-01-29T07:12:19.665Z,50.94
2023-01-29T07:14:46.692Z,50.61
2023-01-29T07:17:13.785Z,50.57
2023-01-29T07:19:40.600Z,50.79
2023-01-29T07:22:07.632Z,50.82
2023-01-29T07:24:34.478Z,50.68
2023-01-29T07:27:01.612Z,50.92
2023-01-29T07:29:28.454Z,50.68
2023-01-29T07:31:55.583Z,50.75
2023-01-29T07:34:22.352Z,50.46
2023-01-29T07:36:49.455Z,50.60
2023-01-29T07:39:16.229Z,50.79
2023-01-29T07:41:43.324Z,50.75
2023-01-29T07:44:10.170Z,50.49
2023-01-29T07:46:37.235Z,50.48
2023-01-29T07:49:03.975Z,50.51
2023-01-29T07:51:31.072Z,50.48
2023-01-29T07:53:57.905Z,50.44
2023-01-29T07:56:25.007Z,50.40
2023-01-29T07:58:51.776Z,50.38
2023-01-29T08:01:18.924Z,50.38
2023-01-29T08:03:45.691Z,50.26
2023-01-29T08:06:12.757Z,50.91
2023-01-29T08:08:39.528Z,50.39
2023-01-29T08:11:06.675Z,50.34
2023-01-29T08:13:33.605Z,50.49
2023-01-29T08:16:04.199Z,50.59
2023-01-29T08:18:33.904Z,50.69
2023-01-29T08:21:01.484Z,50.72
2023-01-29T08:23:28.221Z,50.28
2023-01-29T08:25:55.403Z,50.50
2023-01-29T08:28:22.178Z,50.46
2023-01-29T08:30:49.229Z,50.42
2023-01-29T08:33:17.532Z,50.51
2023-01-29T08:35:49.262Z,50.32
2023-01-29T08:38:16.110Z,50.25
2023-01-29T08:40:43.301Z,50.47
2023-01-29T08:43:10.954Z,50.30
2023-01-29T08:45:40.123Z,49.93
2023-01-29T08:48:07.356Z,50.18
2023-01-29T08:50:35.160Z,50.09
2023-01-29T08:53:07.835Z,49.99
2023-01-29T08:55:39.149Z,50.23
2023-01-29T08:58:10.462Z,50.56
2023-01-29T09:00:37.688Z,50.16
2023-01-29T09:03:05.052Z,50.13
2023-01-29T09:05:32.201Z,50.34
2023-01-29T09:07:59.241Z,50.31
2023-01-29T09:10:26.481Z,50.01
2023-01-29T09:12:53.229Z,50.30
2023-01-29T09:15:20.381Z,50.20
2023-01-29T09:17:47.189Z,49.96
2023-01-29T09:20:14.214Z,50.11
2023-01-29T09:22:41.475Z,50.24
2023-01-29T09:25:08.685Z,49.82
2023-01-29T09:27:35.534Z,50.13
2023-01-29T09:30:03.287Z,49.73
2023-01-29T09:35:20.320Z,50.38
2023-01-29T09:37:50.892Z,50.59
2023-01-29T09:40:45.965Z,50.75
2023-01-29T09:43:21.703Z,50.60
2023-01-29T09:46:00.399Z,50.36
2023-01-29T09:48:28.647Z,50.61
2023-01-29T09:50:56.467Z,50.28
2023-01-29T09:53:35.344Z,50.34
2023-01-29T09:56:12.964Z,50.17
2023-01-29T09:58:41.701Z,50.13
2023-01-29T10:01:26.801Z,50.34
2023-01-29T10:04:14.808Z,49.83
2023-01-29T10:06:47.830Z,50.07
2023-01-29T10:10:02.950Z,49.95
2023-01-29T10:12:59.457Z,49.47
2023-01-29T10:15:29.279Z,49.96
2023-01-29T10:17:59.347Z,49.56
2023-01-29T10:20:47.949Z,49.79
2023-01-29T10:23:15.043Z,49.92
2023-01-29T10:25:41.841Z,50.08
2023-01-29T10:28:38.029Z,49.92
2023-01-29T10:31:29.380Z,49.26
2023-01-29T10:34:18.164Z,49.87
2023-01-29T10:36:46.193Z,49.99
2023-01-29T10:39:18.611Z,49.97
2023-01-29T10:42:13.422Z,49.82
2023-01-29T10:44:43.613Z,49.64
2023-01-29T10:47:30.396Z,49.77
2023-01-29T10:50:18.614Z,49.72
2023-01-29T10:52:57.278Z,49.46
2023-01-29T10:55:44.667Z,49.64
2023-01-29T10:58:26.320Z,49.48
2023-01-29T11:00:53.463Z,49.60
2023-01-29T11:03:30.360Z,49.52
2023-01-29T11:06:25.440Z,49.52
2023-01-29T11:08:57.086Z,49.49
2023-01-29T11:11:50.926Z,49.36
2023-01-29T11:14:31.477Z,49.29
2023-01-29T11:16:58.568Z,49.09
2023-01-29T11:19:42.198Z,49.29
2023-01-29T11:22:12.862Z,49.17
2023-01-29T11:24:39.616Z,48.24
2023-01-29T11:27:23.536Z,49.45
2023-01-29T11:29:50.487Z,48.85
2023-01-29T11:32:23.852Z,49.16
2023-01-29T11:35:19.490Z,48.99
2023-01-29T11:37:47.080Z,48.48
2023-01-29T11:40:20.069Z,48.90
2023-01-29T11:42:47.339Z,49.01
2023-01-29T11:45:20.291Z,48.82
2023-01-29T11:47:51.241Z,48.90
2023-01-29T11:50:21.853Z,48.54
2023-01-29T11:52:48.891Z,48.65
2023-01-29T11:55:50.778Z,48.44
2023-01-29T11:58:31.551Z,48.67
2023-01-29T12:00:58.485Z,48.79
2023-01-29T12:03:34.632Z,48.51
2023-01-29T12:06:07.287Z,48.90
2023-01-29T12:08:38.315Z,48.12
2023-01-29T12:11:27.465Z,48.18
2023-01-29T12:13:55.719Z,48.57
2023-01-29T12:16:48.308Z,47.51
2023-01-29T12:19:28.330Z,46.73
2023-01-29T12:22:43.379Z,47.05
2023-01-29T12:25:16.198Z,48.04
2023-01-29T12:28:02.911Z,46.51
2023-01-29T12:30:33.981Z,46.40
2023-01-29T12:33:03.956Z,47.68
2023-01-29T12:35:36.801Z,47.82
2023-01-29T12:38:24.878Z,47.52
2023-01-29T12:40:57.255Z,47.52
2023-01-29T12:43:38.811Z,47.90
2023-01-29T12:46:07.611Z,47.43
2023-01-29T12:48:34.892Z,47.40
2023-01-29T12:51:11.407Z,47.39
2023-01-29T12:53:40.696Z,47.94
2023-01-29T12:56:13.320Z,47.81
2023-01-29T12:58:43.455Z,47.88
2023-01-29T13:01:14.622Z,48.09
2023-01-29T13:03:55.524Z,47.82
2023-01-29T13:06:28.926Z,47.79
2023-01-29T13:08:58.109Z,47.57
2023-01-29T13:11:39.771Z,46.64
2023-01-29T13:14:21.010Z,47.40
2023-01-29T13:16:49.626Z,46.81
2023-01-29T13:19:32.077Z,46.52
2023-01-29T13:22:00.737Z,45.83
2023-01-29T13:24:39.988Z,45.85
2023-01-29T13:27:07.210Z,45.29
2023-01-29T13:29:33.993Z,45.97
2023-01-29T13:32:03.007Z,45.33
2023-01-29T13:34:44.536Z,45.89
2023-01-29T13:37:13.145Z,46.54
2023-01-29T13:39:46.825Z,46.47
2023-01-29T13:42:18.813Z,46.99
2023-01-29T13:44:50.149Z,46.95
2023-01-29T13:47:30.057Z,47.11
2023-01-29T13:50:21.044Z,47.33
2023-01-29T13:52:55.008Z,47.23
2023-01-29T13:55:35.321Z,46.89
2023-01-29T13:58:06.718Z,45.90
2023-01-29T14:00:33.470Z,47.02
2023-01-29T14:03:00.557Z,45.30
2023-01-29T14:05:30.850Z,45.16
2023-01-29T14:08:13.766Z,45.19
2023-01-29T14:10:41.573Z,45.38
2023-01-29T14:13:11.774Z,45.57
2023-01-29T14:15:39.770Z,45.55
2023-01-29T14:18:15.442Z,45.42
2023-01-29T14:20:48.327Z,45.71
2023-01-29T14:23:49.986Z,46.42
2023-01-29T14:26:30.438Z,46.31
2023-01-29T14:28:59.040Z,46.18
2023-01-29T14:31:58.852Z,46.02
2023-01-29T14:34:49.794Z,46.08
2023-01-29T14:37:16.724Z,44.88
2023-01-29T14:39:54.022Z,45.99
2023-01-29T14:42:26.063Z,46.01
2023-01-29T14:45:20.631Z,46.64
2023-01-29T14:47:47.509Z,46.33
2023-01-29T14:50:38.494Z,46.24
2023-01-29T14:53:25.662Z,45.09
2023-01-29T14:56:02.165Z,46.18
2023-01-29T14:58:52.048Z,45.38
2023-01-29T15:01:25.281Z,46.10
2023-01-29T15:04:13.110Z,46.28
2023-01-29T15:06:48.258Z,46.42
2023-01-29T15:09:35.891Z,46.55
2023-01-29T15:12:09.200Z,46.32
2023-01-29T15:14:36.975Z,46.53
2023-01-29T15:17:25.653Z,46.38
2023-01-29T15:19:52.993Z,46.50
2023-01-29T15:22:26.019Z,46.48
2023-01-29T15:25:04.677Z,46.30
2023-01-29T15:27:31.847Z,46.34
2023-01-29T15:30:03.716Z,46.69
2023-01-29T15:32:36.080Z,46.49
2023-01-29T15:35:07.912Z,46.74
2023-01-29T15:37:35.692Z,46.52
2023-01-29T15:40:02.764Z,46.49
2023-01-29T15:42:41.768Z,46.64
2023-01-29T15:45:40.118Z,46.60
2023-01-29T15:48:11.970Z,46.64
2023-01-29T15:50:40.632Z,46.46
2023-01-29T15:53:14.446Z,46.69
2023-01-29T15:55:41.282Z,46.33
2023-01-29T15:58:13.177Z,46.75
2023-01-29T16:00:39.921Z,46.74
2023-01-29T16:03:14.464Z,46.59
2023-01-29T16:05:41.357Z,46.60
2023-01-29T16:08:12.952Z,46.73
2023-01-29T16:10:40.584Z,46.58
2023-01-29T16:13:16.777Z,46.84
2023-01-29T16:15:57.392Z,46.48
2023-01-29T16:18:33.993Z,46.82
2023-01-29T16:21:08.884Z,46.88
2023-01-29T16:23:40.292Z,46.78
2023-01-29T16:26:08.404Z,46.77
2023-01-29T16:28:42.531Z,46.76
2023-01-29T16:31:09.654Z,46.89
2023-01-29T16:33:38.998Z,46.95
2023-01-29T16:36:17.899Z,46.80
2023-01-29T16:38:56.798Z,47.00
2023-01-29T16:41:24.817Z,46.55
2023-01-29T16:43:54.988Z,46.86
2023-01-29T16:46:34.055Z,46.97
2023-01-29T16:49:01.409Z,46.93
2023-01-29T16:51:30.165Z,47.01
2023-01-29T16:54:18.301Z,46.88
2023-01-29T16:56:46.438Z,46.99
2023-01-29T16:59:39.841Z,47.05
2023-01-29T17:02:15.238Z,47.09
2023-01-29T17:04:42.313Z,47.21
2023-01-29T17:07:16.168Z,46.86
2023-01-29T17:09:43.318Z,46.99
2023-01-29T17:12:10.139Z,47.23
2023-01-29T17:14:38.619Z,47.22
2023-01-29T17:17:07.142Z,47.17
2023-01-29T17:19:34.282Z,47.01
2023-01-29T17:22:04.741Z,47.20
2023-01-29T17:24:32.051Z,47.32
2023-01-29T17:27:00.077Z,46.92
2023-01-29T17:29:30.031Z,47.44
2023-01-29T17:31:57.089Z,47.02
2023-01-29T17:34:24.395Z,46.96
2023-01-29T17:36:51.192Z,47.23
2023-01-29T17:39:20.064Z,47.22
2023-01-29T17:41:51.437Z,46.94
2023-01-29T17:44:18.846Z,47.15
2023-01-29T17:46:46.565Z,47.29
2023-01-29T17:49:22.572Z,47.14
2023-01-29T17:51:50.150Z,46.85
2023-01-29T17:54:17.219Z,47.02
2023-01-29T17:56:44.009Z,46.89
2023-01-29T17:59:37.503Z,47.18
2023-01-29T18:02:04.436Z,47.11
2023-01-29T18:04:31.553Z,47.20
2023-01-29T18:06:58.409Z,47.23
2023-01-29T18:09:25.710Z,47.29
2023-01-29T18:11:53.609Z,47.15
2023-01-29T18:14:20.842Z,47.08
2023-01-29T18:16:47.751Z,47.26
2023-01-29T18:19:23.576Z,47.22
2023-01-29T18:21:51.088Z,46.99
2023-01-29T18:24:20.457Z,47.05
2023-01-29T18:26:48.352Z,46.83
2023-01-29T18:29:15.808Z,47.33
2023-01-29T18:31:42.833Z,47.17
2023-01-29T18:34:10.252Z,47.63
2023-01-29T18:36:37.193Z,47.08
2023-01-29T18:39:04.341Z,47.26
2023-01-29T18:41:31.281Z,47.16
2023-01-29T18:43:58.595Z,47.35
2023-01-29T18:46:25.595Z,47.38
2023-01-29T18:48:52.928Z,47.18
2023-01-29T18:51:19.819Z,47.29
2023-01-29T18:53:53.307Z,47.18
2023-01-29T18:56:20.537Z,47.27
2023-01-29T18:58:52.157Z,47.32
2023-01-29T19:01:20.016Z,47.33
2023-01-29T19:03:47.222Z,47.60
2023-01-29T19:06:14.124Z,47.41
2023-01-29T19:08:43.015Z,47.58
2023-01-29T19:11:12.402Z,47.20
2023-01-29T19:13:40.633Z,47.44
2023-01-29T19:16:09.148Z,47.43
2023-01-29T19:18:36.632Z,47.35
2023-01-29T19:21:11.586Z,47.44
2023-01-29T19:23:39.554Z,47.19
2023-01-29T19:26:06.339Z,47.27
2023-01-29T19:28:33.836Z,47.37
2023-01-29T19:31:01.027Z,47.34
2023-01-29T19:33:28.527Z,47.50
2023-01-29T19:35:56.619Z,47.26
2023-01-29T19:38:24.055Z,47.47
2023-01-29T19:40:51.384Z,47.58
2023-01-29T19:43:18.691Z,46.98
2023-01-29T19:45:50.110Z,47.21
2023-01-29T19:48:21.382Z,47.34
2023-01-29T19:50:52.972Z,47.37
2023-01-29T19:53:20.721Z,47.58
2023-01-29T19:55:48.618Z,47.42
2023-01-29T19:58:16.454Z,47.38
2023-01-29T20:00:43.377Z,47.70
2023-01-29T20:03:10.813Z,47.72
2023-01-29T20:05:38.344Z,47.43
2023-01-29T20:08:06.165Z,47.45
2023-01-29T20:10:33.234Z,47.24
2023-01-29T20:13:02.563Z,47.36
2023-01-29T20:15:30.110Z,47.47
2023-01-29T20:17:58.945Z,47.43
2023-01-29T20:20:29.852Z,47.15
2023-01-29T20:23:01.628Z,47.50
2023-01-29T20:25:28.729Z,47.21
2023-01-29T20:27:56.228Z,47.50
2023-01-29T20:30:23.154Z,47.24
2023-01-29T20:32:50.656Z,47.13
2023-01-29T20:35:17.989Z,47.58
2023-01-29T20:37:45.484Z,47.40
2023-01-29T20:40:12.839Z,47.30
2023-01-29T20:42:40.193Z,47.41
2023-01-29T20:45:07.444Z,47.70
2023-01-29T20:47:34.891Z,47.53
2023-01-29T20:50:08.616Z,47.09
2023-01-29T20:52:36.436Z,47.34
2023-01-29T20:55:04.529Z,47.36
2023-01-29T20:57:32.087Z,47.40
2023-01-29T20:59:59.106Z,47.28
2023-01-29T21:02:26.567Z,47.44
2023-01-29T21:04:53.535Z,47.33
2023-01-29T21:07:21.064Z,47.30
2023-01-29T21:09:48.133Z,47.25
2023-01-29T21:12:15.465Z,47.26
2023-01-29T21:14:42.596Z,47.23
2023-01-29T21:17:10.101Z,47.69
2023-01-29T21:19:37.190Z,47.84
2023-01-29T21:22:04.804Z,47.62
2023-01-29T21:24:31.898Z,47.30
2023-01-29T21:26:59.263Z,47.48
2023-01-29T21:29:26.140Z,47.18
2023-01-29T21:31:53.582Z,47.54
2023-01-29T21:34:20.779Z,47.41
2023-01-29T21:36:48.417Z,47.46
2023-01-29T21:39:19.765Z,47.62
2023-01-29T21:42:07.273Z,47.22
2023-01-29T21:44:34.555Z,47.60
2023-01-29T21:47:02.032Z,47.29
2023-01-29T21:49:28.955Z,47.42
2023-01-29T21:51:56.403Z,47.48
2023-01-29T21:54:23.253Z,47.33
2023-01-29T21:56:50.410Z,47.20
2023-01-29T21:59:17.227Z,47.21
2023-01-29T22:01:44.395Z,47.47
2023-01-29T22:04:11.630Z,47.48
2023-01-29T22:06:38.769Z,47.53
2023-01-29T22:09:05.616Z,47.21
2023-01-29T22:11:33.070Z,46.93
2023-01-29T22:14:00.117Z,46.68
2023-01-29T22:16:27.232Z,46.58
2023-01-29T22:18:54.014Z,46.94
2023-01-29T22:21:21.093Z,46.68
2023-01-29T22:23:48.751Z,47.02
2023-01-29T22:26:15.984Z,46.59
2023-01-29T22:28:42.977Z,46.89
2023-01-29T22:31:10.075Z,47.06
2023-01-29T22:33:36.908Z,46.94
2023-01-29T22:36:04.493Z,46.77
2023-01-29T22:38:31.444Z,46.85
2023-01-29T22:40:59.799Z,46.89
2023-01-29T22:43:26.592Z,46.50
2023-01-29T22:45:53.700Z,46.61
2023-01-29T22:48:20.472Z,46.83
2023-01-29T22:50:53.916Z,46.31
2023-01-29T22:53:20.808Z,46.20
2023-01-29T22:55:55.389Z,46.51
2023-01-29T22:58:22.318Z,45.87
2023-01-29T23:00:52.483Z,46.04
2023-01-29T23:03:19.317Z,46.36
2023-01-29T23:05:46.464Z,46.25
2023-01-29T23:08:13.232Z,46.62
2023-01-29T23:10:40.372Z,46.17
2023-01-29T23:13:07.159Z,46.07
2023-01-29T23:15:34.382Z,46.21
2023-01-29T23:18:01.413Z,45.92
2023-01-29T23:20:28.569Z,45.94
2023-01-29T23:22:55.599Z,45.83
2023-01-29T23:25:22.736Z,45.71
2023-01-29T23:27:49.501Z,46.14
2023-01-29T23:30:17.195Z,46.04
2023-01-29T23:32:44.358Z,46.16
2023-01-29T23:35:11.450Z,45.86
2023-01-29T23:37:38.224Z,46.29
2023-01-29T23:40:05.944Z,46.26
2023-01-29T23:42:32.701Z,45.69
2023-01-29T23:44:59.842Z,45.91
2023-01-29T23:47:26.589Z,45.93
2023-01-29T23:49:53.873Z,46.24
2023-01-29T23:52:20.693Z,45.79
2023-01-29T23:54:47.777Z,45.78
2023-01-29T23:57:14.500Z,46.03
2023-01-29T23:59:41.595Z,45.97
